sensor_id;sensor_type;location;lat;lon;timestamp;P1;durP1;ratioP1;P2;durP2;ratioP2
18693;SDS011;9477;51.414;10.362;2022-07-19T00:00:18;7.53;;;1.80;;
18693;SDS011;9477;51.414;10.362;2022-07-19T00:02:22;4.67;;;2.10;;
18693;SDS011;9477;51.414;10.362;2022-07-19T00:04:25;6.90;;;1.90;;
18693;SDS011;9477;51.414;10.362;2022-07-19T00:06:27;3.80;;;2.07;;
18693;SDS011;9477;51.414;10.362;2022-07-19T00:08:30;5.47;;;2.17;;
18693;SDS011;9477;51.414;10.362;2022-07-19T00:10:33;5.53;;;1.90;;
18693;SDS011;9477;51.414;10.362;2022-07-19T00:12:36;5.93;;;2.10;;
18693;SDS011;9477;51.414;10.362;2022-07-19T00:14:41;6.23;;;2.30;;
18693;SDS011;9477;51.414;10.362;2022-07-19T00:16:44;3.10;;;1.90;;
18693;SDS011;9477;51.414;10.362;2022-07-19T00:18:47;8.53;;;2.00;;
18693;SDS011;9477;51.414;10.362;2022-07-19T00:20:50;3.20;;;1.90;;
18693;SDS011;9477;51.414;10.362;2022-07-19T00:22:53;6.57;;;2.10;;
18693;SDS011;9477;51.414;10.362;2022-07-19T00:24:55;4.23;;;1.80;;
18693;SDS011;9477;51.414;10.362;2022-07-19T00:26:58;4.43;;;1.80;;
18693;SDS011;9477;51.414;10.362;2022-07-19T00:29:01;3.40;;;1.93;;
18693;SDS011;9477;51.414;10.362;2022-07-19T00:31:06;3.17;;;2.10;;
18693;SDS011;9477;51.414;10.362;2022-07-19T00:33:08;3.83;;;1.70;;
18693;SDS011;9477;51.414;10.362;2022-07-19T00:35:11;3.33;;;1.70;;
18693;SDS011;9477;51.414;10.362;2022-07-19T00:37:14;3.30;;;1.83;;
18693;SDS011;9477;51.414;10.362;2022-07-19T00:39:17;4.60;;;1.70;;
18693;SDS011;9477;51.414;10.362;2022-07-19T00:41:20;4.57;;;2.00;;
18693;SDS011;9477;51.414;10.362;2022-07-19T00:43:22;7.30;;;2.00;;
18693;SDS011;9477;51.414;10.362;2022-07-19T00:45:25;3.37;;;2.17;;
18693;SDS011;9477;51.414;10.362;2022-07-19T00:47:29;5.20;;;2.00;;
18693;SDS011;9477;51.414;10.362;2022-07-19T00:49:32;5.57;;;1.60;;
18693;SDS011;9477;51.414;10.362;2022-07-19T00:51:38;5.40;;;2.00;;
18693;SDS011;9477;51.414;10.362;2022-07-19T00:53:42;4.10;;;1.60;;
18693;SDS011;9477;51.414;10.362;2022-07-19T00:55:46;4.60;;;1.80;;
18693;SDS011;9477;51.414;10.362;2022-07-19T00:57:49;5.07;;;1.83;;
18693;SDS011;9477;51.414;10.362;2022-07-19T00:59:53;8.20;;;1.77;;
18693;SDS011;9477;51.414;10.362;2022-07-19T01:01:56;3.63;;;1.73;;
18693;SDS011;9477;51.414;10.362;2022-07-19T01:04:01;4.20;;;1.83;;
18693;SDS011;9477;51.414;10.362;2022-07-19T01:06:05;6.73;;;1.80;;
18693;SDS011;9477;51.414;10.362;2022-07-19T01:08:08;3.77;;;2.00;;
18693;SDS011;9477;51.414;10.362;2022-07-19T01:10:12;3.90;;;1.67;;
18693;SDS011;9477;51.414;10.362;2022-07-19T01:12:15;7.70;;;2.00;;
18693;SDS011;9477;51.414;10.362;2022-07-19T01:14:19;3.57;;;1.67;;
18693;SDS011;9477;51.414;10.362;2022-07-19T01:16:21;3.40;;;1.73;;
18693;SDS011;9477;51.414;10.362;2022-07-19T01:18:24;5.47;;;1.93;;
18693;SDS011;9477;51.414;10.362;2022-07-19T01:20:28;2.83;;;1.80;;
18693;SDS011;9477;51.414;10.362;2022-07-19T01:22:33;5.23;;;1.77;;
18693;SDS011;9477;51.414;10.362;2022-07-19T01:24:36;7.07;;;1.80;;
18693;SDS011;9477;51.414;10.362;2022-07-19T01:26:38;6.07;;;1.70;;
18693;SDS011;9477;51.414;10.362;2022-07-19T01:28:41;6.67;;;1.87;;
18693;SDS011;9477;51.414;10.362;2022-07-19T01:30:44;6.07;;;1.83;;
18693;SDS011;9477;51.414;10.362;2022-07-19T01:32:47;8.10;;;1.90;;
18693;SDS011;9477;51.414;10.362;2022-07-19T01:34:51;5.20;;;1.70;;
18693;SDS011;9477;51.414;10.362;2022-07-19T01:36:54;7.93;;;1.80;;
18693;SDS011;9477;51.414;10.362;2022-07-19T01:38:58;3.73;;;1.47;;
18693;SDS011;9477;51.414;10.362;2022-07-19T01:41:01;3.37;;;1.90;;
18693;SDS011;9477;51.414;10.362;2022-07-19T01:43:03;3.63;;;1.80;;
18693;SDS011;9477;51.414;10.362;2022-07-19T01:45:09;6.50;;;1.87;;
18693;SDS011;9477;51.414;10.362;2022-07-19T01:47:12;4.10;;;1.73;;
18693;SDS011;9477;51.414;10.362;2022-07-19T01:49:15;4.20;;;1.80;;
18693;SDS011;9477;51.414;10.362;2022-07-19T01:51:18;4.50;;;2.23;;
18693;SDS011;9477;51.414;10.362;2022-07-19T01:56:18;7.73;;;2.10;;
18693;SDS011;9477;51.414;10.362;2022-07-19T01:58:21;7.27;;;1.90;;
18693;SDS011;9477;51.414;10.362;2022-07-19T02:00:26;5.83;;;2.40;;
18693;SDS011;9477;51.414;10.362;2022-07-19T02:02:29;3.23;;;1.80;;
18693;SDS011;9477;51.414;10.362;2022-07-19T02:04:32;2.80;;;1.60;;
18693;SDS011;9477;51.414;10.362;2022-07-19T02:06:36;8.70;;;2.37;;
18693;SDS011;9477;51.414;10.362;2022-07-19T02:08:38;6.13;;;1.90;;
18693;SDS011;9477;51.414;10.362;2022-07-19T02:10:42;4.47;;;1.70;;
18693;SDS011;9477;51.414;10.362;2022-07-19T02:12:46;3.53;;;1.70;;
18693;SDS011;9477;51.414;10.362;2022-07-19T02:14:48;2.67;;;1.53;;
18693;SDS011;9477;51.414;10.362;2022-07-19T02:16:51;5.23;;;1.80;;
18693;SDS011;9477;51.414;10.362;2022-07-19T02:18:54;4.70;;;1.63;;
18693;SDS011;9477;51.414;10.362;2022-07-19T02:20:57;5.80;;;1.87;;
18693;SDS011;9477;51.414;10.362;2022-07-19T02:23:00;5.47;;;1.70;;
18693;SDS011;9477;51.414;10.362;2022-07-19T02:25:03;5.33;;;1.90;;
18693;SDS011;9477;51.414;10.362;2022-07-19T02:27:07;3.50;;;1.60;;
18693;SDS011;9477;51.414;10.362;2022-07-19T02:29:11;4.17;;;1.70;;
18693;SDS011;9477;51.414;10.362;2022-07-19T02:31:14;3.03;;;1.77;;
18693;SDS011;9477;51.414;10.362;2022-07-19T02:33:16;7.53;;;1.90;;
18693;SDS011;9477;51.414;10.362;2022-07-19T02:35:19;6.37;;;1.90;;
18693;SDS011;9477;51.414;10.362;2022-07-19T02:37:22;3.90;;;2.00;;
18693;SDS011;9477;51.414;10.362;2022-07-19T02:39:25;6.93;;;2.00;;
18693;SDS011;9477;51.414;10.362;2022-07-19T02:41:28;4.10;;;2.03;;
18693;SDS011;9477;51.414;10.362;2022-07-19T02:43:33;2.90;;;2.00;;
18693;SDS011;9477;51.414;10.362;2022-07-19T02:45:37;7.83;;;2.20;;
18693;SDS011;9477;51.414;10.362;2022-07-19T02:47:40;4.00;;;2.00;;
18693;SDS011;9477;51.414;10.362;2022-07-19T02:49:43;2.60;;;1.80;;
18693;SDS011;9477;51.414;10.362;2022-07-19T02:51:45;7.73;;;2.23;;
18693;SDS011;9477;51.414;10.362;2022-07-19T02:53:48;5.57;;;1.70;;
18693;SDS011;9477;51.414;10.362;2022-07-19T02:55:51;4.90;;;1.87;;
18693;SDS011;9477;51.414;10.362;2022-07-19T02:57:54;3.67;;;2.00;;
18693;SDS011;9477;51.414;10.362;2022-07-19T02:59:57;2.70;;;1.87;;
18693;SDS011;9477;51.414;10.362;2022-07-19T03:02:01;4.67;;;2.30;;
18693;SDS011;9477;51.414;10.362;2022-07-19T03:04:04;6.47;;;1.90;;
18693;SDS011;9477;51.414;10.362;2022-07-19T03:06:07;4.20;;;2.20;;
18693;SDS011;9477;51.414;10.362;2022-07-19T03:08:10;5.60;;;1.93;;
18693;SDS011;9477;51.414;10.362;2022-07-19T03:10:13;4.13;;;1.90;;
18693;SDS011;9477;51.414;10.362;2022-07-19T03:12:16;6.10;;;2.20;;
18693;SDS011;9477;51.414;10.362;2022-07-19T03:14:20;5.17;;;1.97;;
18693;SDS011;9477;51.414;10.362;2022-07-19T03:16:23;6.70;;;1.83;;
18693;SDS011;9477;51.414;10.362;2022-07-19T03:18:27;3.47;;;1.70;;
18693;SDS011;9477;51.414;10.362;2022-07-19T03:20:30;5.07;;;1.80;;
18693;SDS011;9477;51.414;10.362;2022-07-19T03:22:33;3.93;;;1.87;;
18693;SDS011;9477;51.414;10.362;2022-07-19T03:24:35;6.57;;;2.10;;
18693;SDS011;9477;51.414;10.362;2022-07-19T03:26:38;4.13;;;1.80;;
18693;SDS011;9477;51.414;10.362;2022-07-19T03:28:41;2.67;;;2.00;;
18693;SDS011;9477;51.414;10.362;2022-07-19T03:30:44;5.03;;;2.10;;
18693;SDS011;9477;51.414;10.362;2022-07-19T03:32:47;3.93;;;2.00;;
18693;SDS011;9477;51.414;10.362;2022-07-19T03:34:51;7.00;;;3.40;;
18693;SDS011;9477;51.414;10.362;2022-07-19T03:36:54;11.00;;;6.40;;
18693;SDS011;9477;51.414;10.362;2022-07-19T03:38:56;4.33;;;2.63;;
18693;SDS011;9477;51.414;10.362;2022-07-19T03:40:59;3.87;;;2.50;;
18693;SDS011;9477;51.414;10.362;2022-07-19T03:43:03;8.30;;;3.70;;
18693;SDS011;9477;51.414;10.362;2022-07-19T03:45:06;6.43;;;3.50;;
18693;SDS011;9477;51.414;10.362;2022-07-19T03:47:10;4.83;;;2.80;;
18693;SDS011;9477;51.414;10.362;2022-07-19T03:49:12;4.60;;;3.40;;
18693;SDS011;9477;51.414;10.362;2022-07-19T03:51:17;8.17;;;4.33;;
18693;SDS011;9477;51.414;10.362;2022-07-19T03:53:19;6.80;;;4.20;;
18693;SDS011;9477;51.414;10.362;2022-07-19T03:55:23;10.20;;;5.43;;
18693;SDS011;9477;51.414;10.362;2022-07-19T03:57:26;8.40;;;4.43;;
18693;SDS011;9477;51.414;10.362;2022-07-19T03:59:28;9.83;;;7.23;;
18693;SDS011;9477;51.414;10.362;2022-07-19T04:01:31;6.97;;;4.30;;
18693;SDS011;9477;51.414;10.362;2022-07-19T04:03:35;9.73;;;3.13;;
18693;SDS011;9477;51.414;10.362;2022-07-19T04:05:39;4.63;;;2.93;;
18693;SDS011;9477;51.414;10.362;2022-07-19T04:07:43;6.07;;;2.60;;
18693;SDS011;9477;51.414;10.362;2022-07-19T04:09:46;7.87;;;2.60;;
18693;SDS011;9477;51.414;10.362;2022-07-19T04:11:49;4.73;;;2.30;;
18693;SDS011;9477;51.414;10.362;2022-07-19T04:13:52;8.10;;;2.30;;
18693;SDS011;9477;51.414;10.362;2022-07-19T04:15:54;4.70;;;2.27;;
18693;SDS011;9477;51.414;10.362;2022-07-19T04:17:57;4.33;;;2.20;;
18693;SDS011;9477;51.414;10.362;2022-07-19T04:20:00;4.90;;;2.20;;
18693;SDS011;9477;51.414;10.362;2022-07-19T04:22:03;5.97;;;2.30;;
18693;SDS011;9477;51.414;10.362;2022-07-19T04:24:07;9.03;;;2.57;;
18693;SDS011;9477;51.414;10.362;2022-07-19T04:26:11;16.50;;;2.53;;
18693;SDS011;9477;51.414;10.362;2022-07-19T04:28:14;21.83;;;3.23;;
18693;SDS011;9477;51.414;10.362;2022-07-19T04:30:17;26.80;;;3.50;;
18693;SDS011;9477;51.414;10.362;2022-07-19T04:32:19;24.60;;;3.87;;
18693;SDS011;9477;51.414;10.362;2022-07-19T04:34:22;26.60;;;3.57;;
18693;SDS011;9477;51.414;10.362;2022-07-19T04:36:25;26.67;;;3.43;;
18693;SDS011;9477;51.414;10.362;2022-07-19T04:38:28;27.20;;;3.23;;
18693;SDS011;9477;51.414;10.362;2022-07-19T04:40:32;18.00;;;3.30;;
18693;SDS011;9477;51.414;10.362;2022-07-19T04:42:35;22.97;;;3.47;;
18693;SDS011;9477;51.414;10.362;2022-07-19T04:44:38;24.07;;;3.10;;
18693;SDS011;9477;51.414;10.362;2022-07-19T04:46:40;16.50;;;2.97;;
18693;SDS011;9477;51.414;10.362;2022-07-19T04:48:47;19.43;;;2.60;;
18693;SDS011;9477;51.414;10.362;2022-07-19T04:50:50;13.00;;;2.70;;
18693;SDS011;9477;51.414;10.362;2022-07-19T04:52:53;22.43;;;3.13;;
18693;SDS011;9477;51.414;10.362;2022-07-19T04:54:56;18.00;;;3.10;;
18693;SDS011;9477;51.414;10.362;2022-07-19T04:57:00;15.03;;;2.80;;
18693;SDS011;9477;51.414;10.362;2022-07-19T04:59:03;18.27;;;2.90;;
18693;SDS011;9477;51.414;10.362;2022-07-19T05:01:06;13.37;;;2.50;;
18693;SDS011;9477;51.414;10.362;2022-07-19T05:03:08;14.90;;;2.63;;
18693;SDS011;9477;51.414;10.362;2022-07-19T05:05:11;15.43;;;3.00;;
18693;SDS011;9477;51.414;10.362;2022-07-19T05:07:15;18.13;;;2.70;;
18693;SDS011;9477;51.414;10.362;2022-07-19T05:09:18;12.30;;;2.60;;
18693;SDS011;9477;51.414;10.362;2022-07-19T05:11:22;15.07;;;2.90;;
18693;SDS011;9477;51.414;10.362;2022-07-19T05:13:26;13.10;;;2.80;;
18693;SDS011;9477;51.414;10.362;2022-07-19T05:15:29;16.70;;;3.20;;
18693;SDS011;9477;51.414;10.362;2022-07-19T05:17:32;15.20;;;3.07;;
18693;SDS011;9477;51.414;10.362;2022-07-19T05:19:35;9.13;;;2.60;;
18693;SDS011;9477;51.414;10.362;2022-07-19T05:21:38;16.70;;;3.20;;
18693;SDS011;9477;51.414;10.362;2022-07-19T05:23:40;13.70;;;2.83;;
18693;SDS011;9477;51.414;10.362;2022-07-19T05:25:43;15.50;;;2.77;;
18693;SDS011;9477;51.414;10.362;2022-07-19T05:27:46;17.63;;;3.30;;
18693;SDS011;9477;51.414;10.362;2022-07-19T05:29:50;17.30;;;3.03;;
18693;SDS011;9477;51.414;10.362;2022-07-19T05:31:53;11.40;;;2.77;;
18693;SDS011;9477;51.414;10.362;2022-07-19T05:33:56;19.40;;;6.37;;
18693;SDS011;9477;51.414;10.362;2022-07-19T05:35:59;12.13;;;3.50;;
18693;SDS011;9477;51.414;10.362;2022-07-19T05:38:01;9.07;;;3.57;;
18693;SDS011;9477;51.414;10.362;2022-07-19T05:40:09;8.40;;;2.80;;
18693;SDS011;9477;51.414;10.362;2022-07-19T05:42:12;8.77;;;2.53;;
18693;SDS011;9477;51.414;10.362;2022-07-19T05:44:15;11.67;;;3.00;;
18693;SDS011;9477;51.414;10.362;2022-07-19T05:46:19;13.03;;;2.80;;
18693;SDS011;9477;51.414;10.362;2022-07-19T05:48:23;12.40;;;2.80;;
18693;SDS011;9477;51.414;10.362;2022-07-19T05:50:25;14.40;;;3.00;;
18693;SDS011;9477;51.414;10.362;2022-07-19T05:52:28;18.73;;;2.90;;
18693;SDS011;9477;51.414;10.362;2022-07-19T05:54:37;13.73;;;3.10;;
18693;SDS011;9477;51.414;10.362;2022-07-19T05:56:40;12.03;;;2.77;;
18693;SDS011;9477;51.414;10.362;2022-07-19T05:58:43;9.30;;;2.80;;
18693;SDS011;9477;51.414;10.362;2022-07-19T06:00:46;15.00;;;2.70;;
18693;SDS011;9477;51.414;10.362;2022-07-19T06:03:04;6.13;;;2.55;;
18693;SDS011;9477;51.414;10.362;2022-07-19T06:05:07;8.00;;;2.42;;
18693;SDS011;9477;51.414;10.362;2022-07-19T06:07:10;5.40;;;2.20;;
18693;SDS011;9477;51.414;10.362;2022-07-19T06:09:13;4.93;;;2.50;;
18693;SDS011;9477;51.414;10.362;2022-07-19T06:11:17;7.78;;;2.38;;
18693;SDS011;9477;51.414;10.362;2022-07-19T06:13:20;7.40;;;2.22;;
18693;SDS011;9477;51.414;10.362;2022-07-19T06:15:23;4.65;;;2.20;;
18693;SDS011;9477;51.414;10.362;2022-07-19T06:17:26;9.60;;;2.38;;
18693;SDS011;9477;51.414;10.362;2022-07-19T06:19:31;8.82;;;2.97;;
18693;SDS011;9477;51.414;10.362;2022-07-19T06:21:34;6.40;;;2.30;;
18693;SDS011;9477;51.414;10.362;2022-07-19T06:23:37;5.63;;;2.30;;
18693;SDS011;9477;51.414;10.362;2022-07-19T06:25:41;6.43;;;2.22;;
18693;SDS011;9477;51.414;10.362;2022-07-19T06:27:44;11.32;;;2.45;;
18693;SDS011;9477;51.414;10.362;2022-07-19T06:29:47;10.18;;;2.28;;
18693;SDS011;9477;51.414;10.362;2022-07-19T06:31:50;7.57;;;2.20;;
18693;SDS011;9477;51.414;10.362;2022-07-19T06:33:53;6.80;;;2.28;;
18693;SDS011;9477;51.414;10.362;2022-07-19T06:35:57;7.80;;;2.22;;
18693;SDS011;9477;51.414;10.362;2022-07-19T06:38:00;7.55;;;2.42;;
18693;SDS011;9477;51.414;10.362;2022-07-19T06:40:03;12.18;;;2.65;;
18693;SDS011;9477;51.414;10.362;2022-07-19T06:42:06;8.63;;;2.28;;
18693;SDS011;9477;51.414;10.362;2022-07-19T06:44:11;9.60;;;2.40;;
18693;SDS011;9477;51.414;10.362;2022-07-19T06:46:14;6.80;;;2.25;;
18693;SDS011;9477;51.414;10.362;2022-07-19T06:48:17;10.00;;;2.20;;
18693;SDS011;9477;51.414;10.362;2022-07-19T06:50:20;13.25;;;2.33;;
18693;SDS011;9477;51.414;10.362;2022-07-19T06:52:43;9.35;;;2.20;;
18693;SDS011;9477;51.414;10.362;2022-07-19T06:54:46;11.20;;;2.20;;
18693;SDS011;9477;51.414;10.362;2022-07-19T06:56:48;10.85;;;2.50;;
18693;SDS011;9477;51.414;10.362;2022-07-19T06:58:51;11.57;;;2.28;;
18693;SDS011;9477;51.414;10.362;2022-07-19T07:00:54;11.35;;;2.42;;
18693;SDS011;9477;51.414;10.362;2022-07-19T07:02:57;11.88;;;2.70;;
18693;SDS011;9477;51.414;10.362;2022-07-19T07:05:00;6.72;;;2.75;;
18693;SDS011;9477;51.414;10.362;2022-07-19T07:07:03;10.15;;;2.30;;
18693;SDS011;9477;51.414;10.362;2022-07-19T07:09:07;14.30;;;2.30;;
18693;SDS011;9477;51.414;10.362;2022-07-19T07:11:09;15.82;;;2.42;;
18693;SDS011;9477;51.414;10.362;2022-07-19T07:13:12;6.57;;;1.95;;
18693;SDS011;9477;51.414;10.362;2022-07-19T07:15:15;6.55;;;1.75;;
18693;SDS011;9477;51.414;10.362;2022-07-19T07:17:18;7.22;;;2.00;;
18693;SDS011;9477;51.414;10.362;2022-07-19T07:19:21;5.90;;;2.03;;
18693;SDS011;9477;51.414;10.362;2022-07-19T07:21:24;5.97;;;1.70;;
18693;SDS011;9477;51.414;10.362;2022-07-19T07:23:26;4.63;;;1.90;;
18693;SDS011;9477;51.414;10.362;2022-07-19T07:25:31;3.70;;;1.70;;
18693;SDS011;9477;51.414;10.362;2022-07-19T07:27:34;8.00;;;1.80;;
18693;SDS011;9477;51.414;10.362;2022-07-19T07:29:37;4.38;;;1.58;;
18693;SDS011;9477;51.414;10.362;2022-07-19T07:31:39;2.72;;;1.50;;
18693;SDS011;9477;51.414;10.362;2022-07-19T07:33:42;4.22;;;1.45;;
18693;SDS011;9477;51.414;10.362;2022-07-19T07:35:45;4.10;;;1.50;;
18693;SDS011;9477;51.414;10.362;2022-07-19T07:37:48;5.57;;;1.63;;
18693;SDS011;9477;51.414;10.362;2022-07-19T07:39:51;3.30;;;1.67;;
18693;SDS011;9477;51.414;10.362;2022-07-19T07:41:55;5.72;;;1.50;;
18693;SDS011;9477;51.414;10.362;2022-07-19T07:44:12;4.35;;;1.63;;
18693;SDS011;9477;51.414;10.362;2022-07-19T07:46:15;4.53;;;1.60;;
18693;SDS011;9477;51.414;10.362;2022-07-19T07:48:18;4.68;;;1.70;;
18693;SDS011;9477;51.414;10.362;2022-07-19T07:50:21;4.20;;;1.40;;
18693;SDS011;9477;51.414;10.362;2022-07-19T07:52:24;4.88;;;1.80;;
18693;SDS011;9477;51.414;10.362;2022-07-19T07:54:27;3.42;;;1.63;;
18693;SDS011;9477;51.414;10.362;2022-07-19T07:56:30;3.72;;;1.50;;
18693;SDS011;9477;51.414;10.362;2022-07-19T07:58:34;1.65;;;1.30;;
18693;SDS011;9477;51.414;10.362;2022-07-19T08:00:39;3.92;;;1.50;;
18693;SDS011;9477;51.414;10.362;2022-07-19T08:02:43;4.07;;;1.40;;
18693;SDS011;9477;51.414;10.362;2022-07-19T08:04:47;6.55;;;1.50;;
18693;SDS011;9477;51.414;10.362;2022-07-19T08:06:50;2.78;;;1.48;;
18693;SDS011;9477;51.414;10.362;2022-07-19T08:08:53;4.10;;;1.65;;
18693;SDS011;9477;51.414;10.362;2022-07-19T08:10:56;4.78;;;1.67;;
18693;SDS011;9477;51.414;10.362;2022-07-19T08:12:59;3.08;;;1.60;;
18693;SDS011;9477;51.414;10.362;2022-07-19T08:15:10;3.88;;;1.52;;
18693;SDS011;9477;51.414;10.362;2022-07-19T08:17:12;1.85;;;1.50;;
18693;SDS011;9477;51.414;10.362;2022-07-19T08:19:15;3.28;;;1.40;;
18693;SDS011;9477;51.414;10.362;2022-07-19T08:21:18;1.75;;;1.40;;
18693;SDS011;9477;51.414;10.362;2022-07-19T08:23:21;4.43;;;1.42;;
18693;SDS011;9477;51.414;10.362;2022-07-19T08:25:24;6.38;;;1.67;;
18693;SDS011;9477;51.414;10.362;2022-07-19T08:27:27;4.55;;;1.88;;
18693;SDS011;9477;51.414;10.362;2022-07-19T08:29:29;2.92;;;1.40;;
18693;SDS011;9477;51.414;10.362;2022-07-19T08:31:34;2.65;;;1.50;;
18693;SDS011;9477;51.414;10.362;2022-07-19T08:33:37;2.97;;;1.25;;
18693;SDS011;9477;51.414;10.362;2022-07-19T08:35:41;2.85;;;1.40;;
18693;SDS011;9477;51.414;10.362;2022-07-19T08:37:43;3.60;;;1.50;;
18693;SDS011;9477;51.414;10.362;2022-07-19T08:39:46;5.32;;;1.52;;
18693;SDS011;9477;51.414;10.362;2022-07-19T08:41:49;5.07;;;1.70;;
18693;SDS011;9477;51.414;10.362;2022-07-19T08:43:52;2.53;;;1.60;;
18693;SDS011;9477;51.414;10.362;2022-07-19T08:45:57;7.00;;;1.70;;
18693;SDS011;9477;51.414;10.362;2022-07-19T08:48:03;2.38;;;1.50;;
18693;SDS011;9477;51.414;10.362;2022-07-19T08:50:08;4.20;;;1.60;;
18693;SDS011;9477;51.414;10.362;2022-07-19T08:52:12;5.78;;;1.50;;
18693;SDS011;9477;51.414;10.362;2022-07-19T08:54:15;4.28;;;1.63;;
18693;SDS011;9477;51.414;10.362;2022-07-19T08:56:18;4.18;;;1.58;;
18693;SDS011;9477;51.414;10.362;2022-07-19T08:58:39;3.92;;;1.73;;
18693;SDS011;9477;51.414;10.362;2022-07-19T09:00:42;3.13;;;1.50;;
18693;SDS011;9477;51.414;10.362;2022-07-19T09:02:56;7.22;;;1.60;;
18693;SDS011;9477;51.414;10.362;2022-07-19T09:05:01;5.18;;;1.77;;
18693;SDS011;9477;51.414;10.362;2022-07-19T09:07:09;1.90;;;1.70;;
18693;SDS011;9477;51.414;10.362;2022-07-19T09:09:12;4.63;;;1.58;;
18693;SDS011;9477;51.414;10.362;2022-07-19T09:11:18;4.47;;;1.58;;
18693;SDS011;9477;51.414;10.362;2022-07-19T09:13:34;6.68;;;1.90;;
18693;SDS011;9477;51.414;10.362;2022-07-19T09:15:42;5.22;;;1.80;;
18693;SDS011;9477;51.414;10.362;2022-07-19T09:17:47;5.40;;;1.80;;
18693;SDS011;9477;51.414;10.362;2022-07-19T09:19:50;3.22;;;1.70;;
18693;SDS011;9477;51.414;10.362;2022-07-19T09:21:57;4.63;;;1.58;;
18693;SDS011;9477;51.414;10.362;2022-07-19T09:24:02;3.67;;;1.42;;
18693;SDS011;9477;51.414;10.362;2022-07-19T09:26:05;5.43;;;1.70;;
18693;SDS011;9477;51.414;10.362;2022-07-19T09:28:08;5.72;;;1.80;;
18693;SDS011;9477;51.414;10.362;2022-07-19T09:30:11;2.97;;;1.70;;
18693;SDS011;9477;51.414;10.362;2022-07-19T09:32:20;3.60;;;1.70;;
18693;SDS011;9477;51.414;10.362;2022-07-19T09:34:28;7.43;;;1.70;;
18693;SDS011;9477;51.414;10.362;2022-07-19T09:36:31;3.55;;;1.65;;
18693;SDS011;9477;51.414;10.362;2022-07-19T09:38:36;4.35;;;1.80;;
18693;SDS011;9477;51.414;10.362;2022-07-19T09:40:43;3.92;;;1.80;;
18693;SDS011;9477;51.414;10.362;2022-07-19T09:42:46;5.15;;;1.60;;
18693;SDS011;9477;51.414;10.362;2022-07-19T09:44:56;2.92;;;1.70;;
18693;SDS011;9477;51.414;10.362;2022-07-19T09:46:59;3.45;;;1.85;;
18693;SDS011;9477;51.414;10.362;2022-07-19T09:49:11;6.18;;;2.03;;
18693;SDS011;9477;51.414;10.362;2022-07-19T09:51:15;4.47;;;2.00;;
18693;SDS011;9477;51.414;10.362;2022-07-19T09:53:18;3.38;;;1.50;;
18693;SDS011;9477;51.414;10.362;2022-07-19T09:55:23;3.05;;;1.50;;
18693;SDS011;9477;51.414;10.362;2022-07-19T09:57:27;3.95;;;1.67;;
18693;SDS011;9477;51.414;10.362;2022-07-19T09:59:35;5.45;;;1.73;;
18693;SDS011;9477;51.414;10.362;2022-07-19T10:01:49;4.63;;;1.73;;
18693;SDS011;9477;51.414;10.362;2022-07-19T10:03:56;3.60;;;1.50;;
18693;SDS011;9477;51.414;10.362;2022-07-19T10:06:00;4.22;;;1.70;;
18693;SDS011;9477;51.414;10.362;2022-07-19T10:08:04;3.08;;;1.60;;
18693;SDS011;9477;51.414;10.362;2022-07-19T10:10:08;5.25;;;1.60;;
18693;SDS011;9477;51.414;10.362;2022-07-19T10:12:14;4.22;;;1.50;;
18693;SDS011;9477;51.414;10.362;2022-07-19T10:14:18;4.82;;;1.70;;
18693;SDS011;9477;51.414;10.362;2022-07-19T10:16:21;2.10;;;1.50;;
18693;SDS011;9477;51.414;10.362;2022-07-19T10:18:29;3.92;;;1.70;;
18693;SDS011;9477;51.414;10.362;2022-07-19T10:20:35;3.67;;;1.80;;
18693;SDS011;9477;51.414;10.362;2022-07-19T10:22:38;3.13;;;1.48;;
18693;SDS011;9477;51.414;10.362;2022-07-19T10:24:46;4.57;;;1.70;;
18693;SDS011;9477;51.414;10.362;2022-07-19T10:26:52;4.45;;;1.80;;
18693;SDS011;9477;51.414;10.362;2022-07-19T10:29:07;4.80;;;1.60;;
18693;SDS011;9477;51.414;10.362;2022-07-19T10:31:23;6.63;;;1.50;;
18693;SDS011;9477;51.414;10.362;2022-07-19T10:33:29;6.03;;;1.65;;
18693;SDS011;9477;51.414;10.362;2022-07-19T10:35:34;4.28;;;1.88;;
18693;SDS011;9477;51.414;10.362;2022-07-19T10:37:39;2.60;;;1.73;;
18693;SDS011;9477;51.414;10.362;2022-07-19T10:39:42;3.13;;;1.60;;
18693;SDS011;9477;51.414;10.362;2022-07-19T10:44:10;6.32;;;1.83;;
18693;SDS011;9477;51.414;10.362;2022-07-19T10:46:13;5.43;;;1.63;;
18693;SDS011;9477;51.414;10.362;2022-07-19T10:48:16;5.30;;;1.80;;
18693;SDS011;9477;51.414;10.362;2022-07-19T10:50:18;4.82;;;1.58;;
18693;SDS011;9477;51.414;10.362;2022-07-19T10:52:32;3.15;;;1.60;;
18693;SDS011;9477;51.414;10.362;2022-07-19T10:54:36;2.00;;;1.50;;
18693;SDS011;9477;51.414;10.362;2022-07-19T10:56:40;3.78;;;1.55;;
18693;SDS011;9477;51.414;10.362;2022-07-19T10:58:57;5.18;;;1.80;;
18693;SDS011;9477;51.414;10.362;2022-07-19T11:01:02;2.70;;;1.70;;
18693;SDS011;9477;51.414;10.362;2022-07-19T11:03:27;4.93;;;1.80;;
18693;SDS011;9477;51.414;10.362;2022-07-19T11:05:31;3.33;;;1.65;;
18693;SDS011;9477;51.414;10.362;2022-07-19T11:07:34;2.25;;;1.70;;
18693;SDS011;9477;51.414;10.362;2022-07-19T11:09:40;6.47;;;1.80;;
18693;SDS011;9477;51.414;10.362;2022-07-19T11:11:44;5.95;;;1.80;;
18693;SDS011;9477;51.414;10.362;2022-07-19T11:13:47;3.05;;;1.67;;
18693;SDS011;9477;51.414;10.362;2022-07-19T11:15:54;3.47;;;1.77;;
18693;SDS011;9477;51.414;10.362;2022-07-19T11:18:00;3.20;;;1.50;;
18693;SDS011;9477;51.414;10.362;2022-07-19T11:20:05;3.17;;;1.65;;
18693;SDS011;9477;51.414;10.362;2022-07-19T11:22:11;4.63;;;1.60;;
18693;SDS011;9477;51.414;10.362;2022-07-19T11:24:15;4.32;;;1.60;;
18693;SDS011;9477;51.414;10.362;2022-07-19T11:26:22;6.28;;;1.98;;
18693;SDS011;9477;51.414;10.362;2022-07-19T11:28:25;5.40;;;1.90;;
18693;SDS011;9477;51.414;10.362;2022-07-19T11:30:29;2.55;;;1.55;;
18693;SDS011;9477;51.414;10.362;2022-07-19T11:32:34;6.45;;;1.50;;
18693;SDS011;9477;51.414;10.362;2022-07-19T11:34:39;4.20;;;1.77;;
18693;SDS011;9477;51.414;10.362;2022-07-19T11:36:42;4.30;;;1.50;;
18693;SDS011;9477;51.414;10.362;2022-07-19T11:38:46;4.47;;;1.42;;
18693;SDS011;9477;51.414;10.362;2022-07-19T11:40:50;5.68;;;1.58;;
18693;SDS011;9477;51.414;10.362;2022-07-19T11:42:53;6.15;;;1.77;;
18693;SDS011;9477;51.414;10.362;2022-07-19T11:45:16;4.78;;;1.70;;
18693;SDS011;9477;51.414;10.362;2022-07-19T11:47:20;9.88;;;1.98;;
18693;SDS011;9477;51.414;10.362;2022-07-19T11:49:23;10.23;;;2.00;;
18693;SDS011;9477;51.414;10.362;2022-07-19T11:51:28;4.97;;;1.90;;
18693;SDS011;9477;51.414;10.362;2022-07-19T11:53:31;5.97;;;1.90;;
18693;SDS011;9477;51.414;10.362;2022-07-19T11:55:36;5.95;;;1.75;;
18693;SDS011;9477;51.414;10.362;2022-07-19T11:57:39;11.02;;;1.90;;
18693;SDS011;9477;51.414;10.362;2022-07-19T11:59:42;9.27;;;2.10;;
18693;SDS011;9477;51.414;10.362;2022-07-19T12:01:45;9.93;;;1.70;;
18693;SDS011;9477;51.414;10.362;2022-07-19T12:03:52;3.15;;;1.75;;
18693;SDS011;9477;51.414;10.362;2022-07-19T12:05:56;3.17;;;1.70;;
18693;SDS011;9477;51.414;10.362;2022-07-19T12:08:04;8.18;;;1.95;;
18693;SDS011;9477;51.414;10.362;2022-07-19T12:10:08;4.68;;;1.73;;
18693;SDS011;9477;51.414;10.362;2022-07-19T12:12:11;6.22;;;1.90;;
18693;SDS011;9477;51.414;10.362;2022-07-19T12:14:16;8.65;;;1.92;;
18693;SDS011;9477;51.414;10.362;2022-07-19T12:16:21;4.28;;;1.90;;
18693;SDS011;9477;51.414;10.362;2022-07-19T12:18:43;3.67;;;1.80;;
18693;SDS011;9477;51.414;10.362;2022-07-19T12:23:19;4.80;;;1.92;;
18693;SDS011;9477;51.414;10.362;2022-07-19T12:25:34;6.32;;;1.73;;
18693;SDS011;9477;51.414;10.362;2022-07-19T12:27:38;7.93;;;1.60;;
18693;SDS011;9477;51.414;10.362;2022-07-19T12:29:44;7.55;;;1.60;;
18693;SDS011;9477;51.414;10.362;2022-07-19T13:32:46;4.68;;;2.03;;
18693;SDS011;9477;51.414;10.362;2022-07-19T13:34:49;3.28;;;2.10;;